sensor_id;sensor_type;location;lat;lon;timestamp;P1;durP1;ratioP1;P2;durP2;ratioP2
33844;SDS011;20145;43.118;25.694;2023-02-22T00:00:40;8.65;;;3.33;;
33844;SDS011;20145;43.118;25.694;2023-02-22T00:05:43;3.90;;;3.10;;
33844;SDS011;20145;43.118;25.694;2023-02-22T00:08:11;5.32;;;3.50;;
33844;SDS011;20145;43.118;25.694;2023-02-22T00:10:40;5.32;;;3.35;;
33844;SDS011;20145;43.118;25.694;2023-02-22T00:13:06;4.72;;;3.45;;
33844;SDS011;20145;43.118;25.694;2023-02-22T00:15:33;5.43;;;3.78;;
33844;SDS011;20145;43.118;25.694;2023-02-22T00:18:00;3.97;;;3.33;;
33844;SDS011;20145;43.118;25.694;2023-02-22T00:20:26;5.22;;;3.58;;
33844;SDS011;20145;43.118;25.694;2023-02-22T00:22:52;5.88;;;3.70;;
33844;SDS011;20145;43.118;25.694;2023-02-22T00:25:19;4.63;;;3.60;;
33844;SDS011;20145;43.118;25.694;2023-02-22T00:27:46;4.88;;;3.85;;
33844;SDS011;20145;43.118;25.694;2023-02-22T00:30:18;5.45;;;3.22;;
33844;SDS011;20145;43.118;25.694;2023-02-22T00:32:46;4.68;;;3.75;;
33844;SDS011;20145;43.118;25.694;2023-02-22T00:35:13;5.10;;;3.20;;
33844;SDS011;20145;43.118;25.694;2023-02-22T00:37:40;6.07;;;4.18;;
33844;SDS011;20145;43.118;25.694;2023-02-22T00:40:09;7.68;;;3.75;;
33844;SDS011;20145;43.118;25.694;2023-02-22T00:42:36;4.93;;;3.60;;
33844;SDS011;20145;43.118;25.694;2023-02-22T00:45:02;5.30;;;3.92;;
33844;SDS011;20145;43.118;25.694;2023-02-22T00:47:29;5.38;;;3.75;;
33844;SDS011;20145;43.118;25.694;2023-02-22T00:49:55;5.47;;;3.85;;
33844;SDS011;20145;43.118;25.694;2023-02-22T00:52:21;5.25;;;3.35;;
33844;SDS011;20145;43.118;25.694;2023-02-22T00:54:47;5.72;;;3.42;;
33844;SDS011;20145;43.118;25.694;2023-02-22T00:57:12;5.68;;;3.33;;
33844;SDS011;20145;43.118;25.694;2023-02-22T00:59:38;5.78;;;3.60;;
33844;SDS011;20145;43.118;25.694;2023-02-22T01:02:03;5.72;;;3.10;;
33844;SDS011;20145;43.118;25.694;2023-02-22T01:04:29;4.50;;;3.65;;
33844;SDS011;20145;43.118;25.694;2023-02-22T01:06:55;4.72;;;3.90;;
33844;SDS011;20145;43.118;25.694;2023-02-22T01:09:20;5.15;;;3.55;;
33844;SDS011;20145;43.118;25.694;2023-02-22T01:11:49;5.07;;;4.00;;
33844;SDS011;20145;43.118;25.694;2023-02-22T01:14:19;6.45;;;3.97;;
33844;SDS011;20145;43.118;25.694;2023-02-22T01:16:46;8.52;;;3.95;;
33844;SDS011;20145;43.118;25.694;2023-02-22T01:19:12;5.15;;;3.88;;
33844;SDS011;20145;43.118;25.694;2023-02-22T01:21:38;5.55;;;3.78;;
33844;SDS011;20145;43.118;25.694;2023-02-22T01:24:04;4.65;;;3.58;;
33844;SDS011;20145;43.118;25.694;2023-02-22T01:26:30;5.93;;;4.35;;
33844;SDS011;20145;43.118;25.694;2023-02-22T01:28:56;4.22;;;3.67;;
33844;SDS011;20145;43.118;25.694;2023-02-22T01:31:21;4.90;;;3.53;;
33844;SDS011;20145;43.118;25.694;2023-02-22T01:33:48;5.38;;;3.55;;
33844;SDS011;20145;43.118;25.694;2023-02-22T01:36:15;5.20;;;3.88;;
33844;SDS011;20145;43.118;25.694;2023-02-22T01:38:43;4.65;;;4.03;;
33844;SDS011;20145;43.118;25.694;2023-02-22T01:41:09;4.78;;;3.38;;
33844;SDS011;20145;43.118;25.694;2023-02-22T01:43:36;6.32;;;3.38;;
33844;SDS011;20145;43.118;25.694;2023-02-22T01:46:15;5.93;;;4.25;;
33844;SDS011;20145;43.118;25.694;2023-02-22T01:48:57;4.78;;;3.88;;
33844;SDS011;20145;43.118;25.694;2023-02-22T01:51:28;6.90;;;4.25;;
33844;SDS011;20145;43.118;25.694;2023-02-22T01:54:14;5.28;;;3.85;;
33844;SDS011;20145;43.118;25.694;2023-02-22T01:56:45;6.72;;;3.83;;
33844;SDS011;20145;43.118;25.694;2023-02-22T01:59:16;6.78;;;4.25;;
33844;SDS011;20145;43.118;25.694;2023-02-22T02:01:43;9.35;;;3.88;;
33844;SDS011;20145;43.118;25.694;2023-02-22T02:04:09;4.65;;;3.38;;
33844;SDS011;20145;43.118;25.694;2023-02-22T02:06:39;4.57;;;3.03;;
33844;SDS011;20145;43.118;25.694;2023-02-22T02:12:04;3.55;;;3.10;;
33844;SDS011;20145;43.118;25.694;2023-02-22T02:14:32;4.18;;;3.20;;
33844;SDS011;20145;43.118;25.694;2023-02-22T02:17:04;4.68;;;3.10;;
33844;SDS011;20145;43.118;25.694;2023-02-22T02:38:30;3.95;;;2.80;;
33844;SDS011;20145;43.118;25.694;2023-02-22T02:41:02;4.90;;;3.83;;
33844;SDS011;20145;43.118;25.694;2023-02-22T02:48:55;3.45;;;2.70;;
33844;SDS011;20145;43.118;25.694;2023-02-22T02:51:26;5.50;;;2.85;;
33844;SDS011;20145;43.118;25.694;2023-02-22T02:53:55;3.10;;;2.67;;
33844;SDS011;20145;43.118;25.694;2023-02-22T02:56:22;3.70;;;2.90;;
33844;SDS011;20145;43.118;25.694;2023-02-22T02:58:49;5.22;;;2.75;;
33844;SDS011;20145;43.118;25.694;2023-02-22T03:09:31;3.20;;;2.58;;
33844;SDS011;20145;43.118;25.694;2023-02-22T03:12:26;3.47;;;2.67;;
33844;SDS011;20145;43.118;25.694;2023-02-22T03:17:53;4.90;;;2.70;;
33844;SDS011;20145;43.118;25.694;2023-02-22T03:20:36;3.17;;;2.60;;
33844;SDS011;20145;43.118;25.694;2023-02-22T03:23:05;4.90;;;3.03;;
33844;SDS011;20145;43.118;25.694;2023-02-22T03:25:36;4.72;;;2.63;;
33844;SDS011;20145;43.118;25.694;2023-02-22T03:28:08;4.05;;;3.13;;
33844;SDS011;20145;43.118;25.694;2023-02-22T03:30:38;4.88;;;2.70;;
33844;SDS011;20145;43.118;25.694;2023-02-22T03:33:16;3.75;;;2.50;;
33844;SDS011;20145;43.118;25.694;2023-02-22T03:35:48;3.92;;;2.47;;
33844;SDS011;20145;43.118;25.694;2023-02-22T03:38:20;3.50;;;2.65;;
33844;SDS011;20145;43.118;25.694;2023-02-22T03:40:51;3.28;;;2.30;;
33844;SDS011;20145;43.118;25.694;2023-02-22T03:43:33;3.30;;;2.70;;
33844;SDS011;20145;43.118;25.694;2023-02-22T03:46:12;2.42;;;2.22;;
33844;SDS011;20145;43.118;25.694;2023-02-22T03:51:34;3.17;;;2.35;;
33844;SDS011;20145;43.118;25.694;2023-02-22T03:54:01;3.67;;;2.20;;
33844;SDS011;20145;43.118;25.694;2023-02-22T03:56:32;9.63;;;2.42;;
33844;SDS011;20145;43.118;25.694;2023-02-22T03:59:04;2.42;;;2.03;;
33844;SDS011;20145;43.118;25.694;2023-02-22T04:01:31;3.88;;;2.70;;
33844;SDS011;20145;43.118;25.694;2023-02-22T04:03:57;5.03;;;2.40;;
33844;SDS011;20145;43.118;25.694;2023-02-22T04:06:24;3.33;;;2.30;;
33844;SDS011;20145;43.118;25.694;2023-02-22T04:08:50;3.78;;;2.90;;
33844;SDS011;20145;43.118;25.694;2023-02-22T04:11:15;3.25;;;2.53;;
33844;SDS011;20145;43.118;25.694;2023-02-22T04:13:41;3.70;;;2.53;;
33844;SDS011;20145;43.118;25.694;2023-02-22T04:16:06;2.75;;;2.55;;
33844;SDS011;20145;43.118;25.694;2023-02-22T04:18:32;4.93;;;2.40;;
33844;SDS011;20145;43.118;25.694;2023-02-22T04:20:57;4.90;;;2.63;;
33844;SDS011;20145;43.118;25.694;2023-02-22T04:23:23;3.65;;;2.38;;
33844;SDS011;20145;43.118;25.694;2023-02-22T04:25:48;5.03;;;3.58;;
33844;SDS011;20145;43.118;25.694;2023-02-22T04:28:14;4.07;;;2.40;;
33844;SDS011;20145;43.118;25.694;2023-02-22T04:30:40;4.70;;;2.08;;
33844;SDS011;20145;43.118;25.694;2023-02-22T04:33:05;3.83;;;2.38;;
33844;SDS011;20145;43.118;25.694;2023-02-22T04:35:31;2.17;;;1.98;;
33844;SDS011;20145;43.118;25.694;2023-02-22T04:37:56;3.17;;;2.38;;
33844;SDS011;20145;43.118;25.694;2023-02-22T04:40:22;3.45;;;2.30;;
33844;SDS011;20145;43.118;25.694;2023-02-22T04:42:48;4.03;;;2.45;;
33844;SDS011;20145;43.118;25.694;2023-02-22T04:45:13;3.25;;;2.45;;
33844;SDS011;20145;43.118;25.694;2023-02-22T04:47:39;3.95;;;2.28;;
33844;SDS011;20145;43.118;25.694;2023-02-22T04:50:05;3.28;;;2.10;;
33844;SDS011;20145;43.118;25.694;2023-02-22T04:52:32;3.80;;;2.42;;
33844;SDS011;20145;43.118;25.694;2023-02-22T04:54:58;3.58;;;2.38;;
33844;SDS011;20145;43.118;25.694;2023-02-22T04:57:23;3.33;;;2.17;;
33844;SDS011;20145;43.118;25.694;2023-02-22T04:59:49;4.18;;;2.53;;
33844;SDS011;20145;43.118;25.694;2023-02-22T05:02:15;5.63;;;2.75;;
33844;SDS011;20145;43.118;25.694;2023-02-22T05:04:41;5.60;;;2.88;;
33844;SDS011;20145;43.118;25.694;2023-02-22T05:07:07;7.07;;;4.03;;
33844;SDS011;20145;43.118;25.694;2023-02-22T05:09:33;4.63;;;2.83;;
33844;SDS011;20145;43.118;25.694;2023-02-22T05:11:58;4.18;;;2.55;;
33844;SDS011;20145;43.118;25.694;2023-02-22T05:14:24;4.80;;;2.50;;
33844;SDS011;20145;43.118;25.694;2023-02-22T05:16:55;4.70;;;2.50;;
33844;SDS011;20145;43.118;25.694;2023-02-22T05:19:22;5.03;;;2.75;;
33844;SDS011;20145;43.118;25.694;2023-02-22T05:21:48;4.15;;;3.05;;
33844;SDS011;20145;43.118;25.694;2023-02-22T05:24:14;3.83;;;2.60;;
33844;SDS011;20145;43.118;25.694;2023-02-22T05:26:42;7.70;;;3.10;;
33844;SDS011;20145;43.118;25.694;2023-02-22T05:29:08;4.97;;;2.65;;
33844;SDS011;20145;43.118;25.694;2023-02-22T05:31:34;2.97;;;2.35;;
33844;SDS011;20145;43.118;25.694;2023-02-22T05:34:00;10.95;;;2.65;;
33844;SDS011;20145;43.118;25.694;2023-02-22T05:36:25;4.40;;;2.78;;
33844;SDS011;20145;43.118;25.694;2023-02-22T05:38:52;4.18;;;2.30;;
33844;SDS011;20145;43.118;25.694;2023-02-22T05:41:18;4.25;;;2.88;;
33844;SDS011;20145;43.118;25.694;2023-02-22T05:43:44;4.63;;;2.78;;
33844;SDS011;20145;43.118;25.694;2023-02-22T05:46:09;4.78;;;3.80;;
33844;SDS011;20145;43.118;25.694;2023-02-22T05:48:35;4.55;;;3.45;;
33844;SDS011;20145;43.118;25.694;2023-02-22T05:51:01;9.68;;;4.88;;
33844;SDS011;20145;43.118;25.694;2023-02-22T05:53:27;6.85;;;3.75;;
33844;SDS011;20145;43.118;25.694;2023-02-22T05:55:53;7.45;;;3.88;;
33844;SDS011;20145;43.118;25.694;2023-02-22T05:58:19;6.82;;;4.38;;
33844;SDS011;20145;43.118;25.694;2023-02-22T06:00:45;5.35;;;3.45;;
33844;SDS011;20145;43.118;25.694;2023-02-22T06:03:14;6.20;;;3.95;;
33844;SDS011;20145;43.118;25.694;2023-02-22T06:05:39;8.07;;;4.50;;
33844;SDS011;20145;43.118;25.694;2023-02-22T06:08:05;7.07;;;2.97;;
33844;SDS011;20145;43.118;25.694;2023-02-22T06:10:32;13.90;;;4.15;;
33844;SDS011;20145;43.118;25.694;2023-02-22T06:12:58;8.30;;;4.95;;
33844;SDS011;20145;43.118;25.694;2023-02-22T06:15:25;8.75;;;4.45;;
33844;SDS011;20145;43.118;25.694;2023-02-22T06:17:52;10.20;;;3.80;;
33844;SDS011;20145;43.118;25.694;2023-02-22T06:20:20;6.32;;;3.70;;
33844;SDS011;20145;43.118;25.694;2023-02-22T06:22:47;7.22;;;3.65;;
33844;SDS011;20145;43.118;25.694;2023-02-22T06:25:14;11.07;;;4.82;;
33844;SDS011;20145;43.118;25.694;2023-02-22T06:27:42;7.68;;;4.07;;
33844;SDS011;20145;43.118;25.694;2023-02-22T06:30:08;7.00;;;4.25;;
33844;SDS011;20145;43.118;25.694;2023-02-22T06:32:35;6.57;;;4.47;;
33844;SDS011;20145;43.118;25.694;2023-02-22T06:35:00;5.35;;;3.95;;
33844;SDS011;20145;43.118;25.694;2023-02-22T06:37:26;5.93;;;3.60;;
33844;SDS011;20145;43.118;25.694;2023-02-22T06:39:51;6.05;;;4.43;;
33844;SDS011;20145;43.118;25.694;2023-02-22T06:42:17;8.32;;;4.60;;
33844;SDS011;20145;43.118;25.694;2023-02-22T06:44:42;7.00;;;4.50;;
33844;SDS011;20145;43.118;25.694;2023-02-22T06:47:08;3.65;;;3.10;;
33844;SDS011;20145;43.118;25.694;2023-02-22T06:49:33;8.00;;;3.70;;
33844;SDS011;20145;43.118;25.694;2023-02-22T06:51:59;8.80;;;4.28;;
33844;SDS011;20145;43.118;25.694;2023-02-22T06:54:25;7.05;;;4.78;;
33844;SDS011;20145;43.118;25.694;2023-02-22T06:56:51;9.52;;;4.72;;
33844;SDS011;20145;43.118;25.694;2023-02-22T06:59:17;7.28;;;3.67;;
33844;SDS011;20145;43.118;25.694;2023-02-22T07:01:42;4.38;;;3.50;;
33844;SDS011;20145;43.118;25.694;2023-02-22T07:04:08;6.80;;;4.18;;
33844;SDS011;20145;43.118;25.694;2023-02-22T07:06:34;6.65;;;3.92;;
33844;SDS011;20145;43.118;25.694;2023-02-22T07:09:00;5.70;;;3.45;;
33844;SDS011;20145;43.118;25.694;2023-02-22T07:11:26;9.95;;;3.70;;
33844;SDS011;20145;43.118;25.694;2023-02-22T07:13:52;5.68;;;4.15;;
33844;SDS011;20145;43.118;25.694;2023-02-22T07:16:19;11.65;;;4.40;;
33844;SDS011;20145;43.118;25.694;2023-02-22T07:18:45;8.38;;;4.40;;
33844;SDS011;20145;43.118;25.694;2023-02-22T07:21:10;8.73;;;4.63;;
33844;SDS011;20145;43.118;25.694;2023-02-22T07:23:36;9.38;;;5.13;;
33844;SDS011;20145;43.118;25.694;2023-02-22T07:26:02;11.75;;;4.93;;
33844;SDS011;20145;43.118;25.694;2023-02-22T07:28:29;8.27;;;5.47;;
33844;SDS011;20145;43.118;25.694;2023-02-22T07:30:55;7.07;;;4.93;;
33844;SDS011;20145;43.118;25.694;2023-02-22T07:33:20;9.30;;;4.90;;
33844;SDS011;20145;43.118;25.694;2023-02-22T07:35:47;7.85;;;5.22;;
33844;SDS011;20145;43.118;25.694;2023-02-22T07:38:15;7.70;;;4.32;;
33844;SDS011;20145;43.118;25.694;2023-02-22T07:40:42;6.88;;;3.97;;
33844;SDS011;20145;43.118;25.694;2023-02-22T07:43:21;6.03;;;3.80;;
33844;SDS011;20145;43.118;25.694;2023-02-22T07:45:50;11.43;;;4.00;;
33844;SDS011;20145;43.118;25.694;2023-02-22T07:48:18;6.80;;;4.15;;
33844;SDS011;20145;43.118;25.694;2023-02-22T07:50:45;4.70;;;3.67;;
33844;SDS011;20145;43.118;25.694;2023-02-22T07:53:14;5.35;;;3.80;;
33844;SDS011;20145;43.118;25.694;2023-02-22T07:55:43;5.90;;;4.25;;
33844;SDS011;20145;43.118;25.694;2023-02-22T07:58:11;3.58;;;2.80;;
33844;SDS011;20145;43.118;25.694;2023-02-22T08:00:39;3.85;;;2.47;;
33844;SDS011;20145;43.118;25.694;2023-02-22T08:03:06;4.60;;;3.17;;
33844;SDS011;20145;43.118;25.694;2023-02-22T08:05:34;5.53;;;2.92;;
33844;SDS011;20145;43.118;25.694;2023-02-22T08:08:01;6.65;;;3.50;;
33844;SDS011;20145;43.118;25.694;2023-02-22T08:10:27;5.40;;;2.85;;
33844;SDS011;20145;43.118;25.694;2023-02-22T08:12:55;4.93;;;3.03;;
33844;SDS011;20145;43.118;25.694;2023-02-22T08:15:21;5.85;;;3.00;;
33844;SDS011;20145;43.118;25.694;2023-02-22T08:17:55;3.25;;;2.03;;
33844;SDS011;20145;43.118;25.694;2023-02-22T08:20:22;2.05;;;1.75;;
33844;SDS011;20145;43.118;25.694;2023-02-22T08:22:49;6.45;;;1.70;;
33844;SDS011;20145;43.118;25.694;2023-02-22T08:25:15;7.25;;;1.73;;
33844;SDS011;20145;43.118;25.694;2023-02-22T08:27:42;2.13;;;1.77;;
33844;SDS011;20145;43.118;25.694;2023-02-22T08:30:10;2.67;;;1.70;;
33844;SDS011;20145;43.118;25.694;2023-02-22T08:32:42;6.47;;;2.17;;
33844;SDS011;20145;43.118;25.694;2023-02-22T08:35:08;1.83;;;1.50;;
33844;SDS011;20145;43.118;25.694;2023-02-22T08:37:54;2.40;;;1.83;;
33844;SDS011;20145;43.118;25.694;2023-02-22T08:40:23;3.47;;;1.85;;
33844;SDS011;20145;43.118;25.694;2023-02-22T08:42:50;13.13;;;3.33;;
33844;SDS011;20145;43.118;25.694;2023-02-22T08:45:16;3.55;;;2.03;;
33844;SDS011;20145;43.118;25.694;2023-02-22T08:47:42;3.05;;;1.70;;
33844;SDS011;20145;43.118;25.694;2023-02-22T08:50:08;3.08;;;1.92;;
33844;SDS011;20145;43.118;25.694;2023-02-22T08:52:39;2.92;;;1.90;;
33844;SDS011;20145;43.118;25.694;2023-02-22T08:55:05;3.28;;;1.75;;
33844;SDS011;20145;43.118;25.694;2023-02-22T08:57:31;3.00;;;2.10;;
33844;SDS011;20145;43.118;25.694;2023-02-22T08:59:56;4.95;;;1.83;;
33844;SDS011;20145;43.118;25.694;2023-02-22T09:02:22;3.95;;;2.15;;
33844;SDS011;20145;43.118;25.694;2023-02-22T09:04:49;3.30;;;2.17;;
33844;SDS011;20145;43.118;25.694;2023-02-22T09:07:15;5.38;;;2.33;;
33844;SDS011;20145;43.118;25.694;2023-02-22T09:09:41;2.70;;;1.85;;
33844;SDS011;20145;43.118;25.694;2023-02-22T09:12:07;6.20;;;1.77;;
33844;SDS011;20145;43.118;25.694;2023-02-22T09:14:33;1.98;;;1.70;;
33844;SDS011;20145;43.118;25.694;2023-02-22T09:16:59;5.78;;;3.00;;
33844;SDS011;20145;43.118;25.694;2023-02-22T09:19:25;2.80;;;2.10;;
33844;SDS011;20145;43.118;25.694;2023-02-22T09:21:52;2.55;;;1.80;;
33844;SDS011;20145;43.118;25.694;2023-02-22T09:24:21;2.80;;;1.95;;
33844;SDS011;20145;43.118;25.694;2023-02-22T09:26:47;4.55;;;2.00;;
33844;SDS011;20145;43.118;25.694;2023-02-22T09:29:22;3.50;;;2.13;;
33844;SDS011;20145;43.118;25.694;2023-02-22T09:31:50;5.35;;;2.00;;
33844;SDS011;20145;43.118;25.694;2023-02-22T09:34:17;4.90;;;1.80;;
33844;SDS011;20145;43.118;25.694;2023-02-22T09:36:45;5.15;;;1.95;;
33844;SDS011;20145;43.118;25.694;2023-02-22T09:39:12;2.90;;;1.70;;
33844;SDS011;20145;43.118;25.694;2023-02-22T09:44:47;2.45;;;1.45;;
33844;SDS011;20145;43.118;25.694;2023-02-22T09:47:20;2.38;;;1.75;;
33844;SDS011;20145;43.118;25.694;2023-02-22T09:50:00;2.30;;;1.73;;
33844;SDS011;20145;43.118;25.694;2023-02-22T09:52:35;2.65;;;1.70;;
33844;SDS011;20145;43.118;25.694;2023-02-22T09:55:08;6.10;;;1.98;;
33844;SDS011;20145;43.118;25.694;2023-02-22T09:58:05;1.95;;;1.52;;
33844;SDS011;20145;43.118;25.694;2023-02-22T10:00:38;2.00;;;1.67;;
33844;SDS011;20145;43.118;25.694;2023-02-22T10:03:19;2.78;;;1.73;;
33844;SDS011;20145;43.118;25.694;2023-02-22T10:08:38;2.72;;;1.67;;
33844;SDS011;20145;43.118;25.694;2023-02-22T10:16:35;2.05;;;1.75;;
33844;SDS011;20145;43.118;25.694;2023-02-22T10:22:11;3.67;;;2.33;;
33844;SDS011;20145;43.118;25.694;2023-02-22T10:24:57;11.88;;;2.72;;
33844;SDS011;20145;43.118;25.694;2023-02-22T10:30:07;4.82;;;2.47;;
33844;SDS011;20145;43.118;25.694;2023-02-22T10:33:10;3.10;;;2.33;;
33844;SDS011;20145;43.118;25.694;2023-02-22T10:35:40;1.95;;;1.70;;
33844;SDS011;20145;43.118;25.694;2023-02-22T10:38:13;2.95;;;1.42;;
33844;SDS011;20145;43.118;25.694;2023-02-22T10:40:48;2.58;;;2.00;;
33844;SDS011;20145;43.118;25.694;2023-02-22T10:43:19;2.80;;;2.33;;
33844;SDS011;20145;43.118;25.694;2023-02-22T10:45:45;3.00;;;1.67;;
33844;SDS011;20145;43.118;25.694;2023-02-22T10:48:12;3.47;;;1.48;;
33844;SDS011;20145;43.118;25.694;2023-02-22T10:50:43;2.22;;;1.20;;
33844;SDS011;20145;43.118;25.694;2023-02-22T10:53:10;1.50;;;1.40;;
33844;SDS011;20145;43.118;25.694;2023-02-22T10:58:38;3.45;;;1.55;;
33844;SDS011;20145;43.118;25.694;2023-02-22T11:06:45;3.30;;;1.67;;
33844;SDS011;20145;43.118;25.694;2023-02-22T11:09:41;3.13;;;1.50;;
33844;SDS011;20145;43.118;25.694;2023-02-22T11:12:18;3.20;;;1.90;;
33844;SDS011;20145;43.118;25.694;2023-02-22T11:14:56;2.58;;;1.40;;
33844;SDS011;20145;43.118;25.694;2023-02-22T11:17:29;2.20;;;1.50;;
33844;SDS011;20145;43.118;25.694;2023-02-22T11:19:58;1.58;;;1.40;;
33844;SDS011;20145;43.118;25.694;2023-02-22T11:22:25;1.45;;;1.30;;
33844;SDS011;20145;43.118;25.694;2023-02-22T11:25:02;5.53;;;1.38;;
33844;SDS011;20145;43.118;25.694;2023-02-22T11:27:40;2.22;;;1.25;;
33844;SDS011;20145;43.118;25.694;2023-02-22T11:32:55;2.00;;;1.33;;
33844;SDS011;20145;43.118;25.694;2023-02-22T11:37:53;1.55;;;1.40;;
33844;SDS011;20145;43.118;25.694;2023-02-22T11:40:33;3.83;;;1.80;;
33844;SDS011;20145;43.118;25.694;2023-02-22T11:43:07;3.10;;;1.63;;
33844;SDS011;20145;43.118;25.694;2023-02-22T11:45:50;2.38;;;1.52;;
33844;SDS011;20145;43.118;25.694;2023-02-22T11:48:24;1.65;;;1.40;;
33844;SDS011;20145;43.118;25.694;2023-02-22T12:07:09;1.98;;;1.70;;
33844;SDS011;20145;43.118;25.694;2023-02-22T12:15:49;2.30;;;2.10;;
33844;SDS011;20145;43.118;25.694;2023-02-22T12:18:45;2.47;;;2.25;;
33844;SDS011;20145;43.118;25.694;2023-02-22T12:21:22;4.97;;;2.15;;
33844;SDS011;20145;43.118;25.694;2023-02-22T12:23:56;3.22;;;2.30;;
33844;SDS011;20145;43.118;25.694;2023-02-22T12:26:38;7.55;;;2.33;;
33844;SDS011;20145;43.118;25.694;2023-02-22T12:32:16;3.25;;;2.30;;
33844;SDS011;20145;43.118;25.694;2023-02-22T12:35:10;4.55;;;2.13;;
33844;SDS011;20145;43.118;25.694;2023-02-22T12:38:29;4.80;;;2.72;;
33844;SDS011;20145;43.118;25.694;2023-02-22T12:40:40;3.08;;;2.22;;
33844;SDS011;20145;43.118;25.694;2023-02-22T12:43:15;4.75;;;2.70;;
33844;SDS011;20145;43.118;25.694;2023-02-22T12:45:55;3.22;;;2.40;;
33844;SDS011;20145;43.118;25.694;2023-02-22T12:48:30;5.03;;;2.60;;
33844;SDS011;20145;43.118;25.694;2023-02-22T12:51:30;10.80;;;2.80;;
33844;SDS011;20145;43.118;25.694;2023-02-22T12:54:08;4.03;;;2.60;;
33844;SDS011;20145;43.118;25.694;2023-02-22T12:56:52;4.15;;;2.40;;
33844;SDS011;20145;43.118;25.694;2023-02-22T13:01:54;2.83;;;2.22;;
33844;SDS011;20145;43.118;25.694;2023-02-22T13:04:25;2.92;;;2.38;;
33844;SDS011;20145;43.118;25.694;2023-02-22T13:06:54;4.75;;;2.45;;
33844;SDS011;20145;43.118;25.694;2023-02-22T13:20:57;3.38;;;2.40;;
33844;SDS011;20145;43.118;25.694;2023-02-22T13:26:21;5.18;;;2.67;;
33844;SDS011;20145;43.118;25.694;2023-02-22T13:29:01;5.13;;;3.00;;
33844;SDS011;20145;43.118;25.694;2023-02-22T13:34:25;3.58;;;2.83;;
33844;SDS011;20145;43.118;25.694;2023-02-22T13:50:48;4.78;;;3.35;;
33844;SDS011;20145;43.118;25.694;2023-02-22T13:53:40;4.50;;;3.72;;
33844;SDS011;20145;43.118;25.694;2023-02-22T13:56:27;3.95;;;3.33;;
33844;SDS011;20145;43.118;25.694;2023-02-22T13:58:56;4.40;;;3.65;;
33844;SDS011;20145;43.118;25.694;2023-02-22T14:01:36;4.65;;;3.42;;
33844;SDS011;20145;43.118;25.694;2023-02-22T14:06:57;6.50;;;4.30;;
33844;SDS011;20145;43.118;25.694;2023-02-22T14:09:41;5.57;;;4.13;;
33844;SDS011;20145;43.118;25.694;2023-02-22T14:17:37;6.88;;;4.13;;
33844;SDS011;20145;43.118;25.694;2023-02-22T14:20:27;7.15;;;3.72;;
33844;SDS011;20145;43.118;25.694;2023-02-22T14:22:57;4.70;;;2.83;;
33844;SDS011;20145;43.118;25.694;2023-02-22T14:25:47;6.47;;;3.00;;
33844;SDS011;20145;43.118;25.694;2023-02-22T14:33:51;7.07;;;4.65;;
33844;SDS011;20145;43.118;25.694;2023-02-22T14:36:28;7.68;;;4.05;;
33844;SDS011;20145;43.118;25.694;2023-02-22T14:39:24;9.57;;;3.38;;
33844;SDS011;20145;43.118;25.694;2023-02-22T14:42:20;4.80;;;2.88;;
33844;SDS011;20145;43.118;25.694;2023-02-22T14:47:43;5.38;;;3.33;;
33844;SDS011;20145;43.118;25.694;2023-02-22T14:53:49;5.18;;;3.13;;
33844;SDS011;20145;43.118;25.694;2023-02-22T14:56:06;8.38;;;3.75;;
33844;SDS011;20145;43.118;25.694;2023-02-22T14:58:48;4.40;;;3.50;;
33844;SDS011;20145;43.118;25.694;2023-02-22T15:01:26;12.73;;;3.83;;
33844;SDS011;20145;43.118;25.694;2023-02-22T15:06:50;5.75;;;3.35;;
33844;SDS011;20145;43.118;25.694;2023-02-22T15:09:24;11.38;;;4.05;;
33844;SDS011;20145;43.118;25.694;2023-02-22T15:15:39;5.80;;;3.47;;
33844;SDS011;20145;43.118;25.694;2023-02-22T15:17:47;4.47;;;3.55;;
33844;SDS011;20145;43.118;25.694;2023-02-22T15:20:17;4.50;;;3.30;;
33844;SDS011;20145;43.118;25.694;2023-02-22T15:22:44;8.02;;;3.70;;
33844;SDS011;20145;43.118;25.694;2023-02-22T15:25:12;7.60;;;3.35;;
33844;SDS011;20145;43.118;25.694;2023-02-22T15:27:38;6.65;;;3.67;;
33844;SDS011;20145;43.118;25.694;2023-02-22T15:30:19;7.57;;;4.05;;
33844;SDS011;20145;43.118;25.694;2023-02-22T15:32:54;10.73;;;4.85;;
33844;SDS011;20145;43.118;25.694;2023-02-22T15:35:27;6.65;;;4.20;;
33844;SDS011;20145;43.118;25.694;2023-02-22T15:40:30;9.43;;;4.45;;
33844;SDS011;20145;43.118;25.694;2023-02-22T15:43:00;8.32;;;5.05;;
33844;SDS011;20145;43.118;25.694;2023-02-22T15:45:29;7.93;;;4.53;;
33844;SDS011;20145;43.118;25.694;2023-02-22T15:47:58;7.25;;;4.90;;
33844;SDS011;20145;43.118;25.694;2023-02-22T15:50:25;10.65;;;6.05;;
33844;SDS011;20145;43.118;25.694;2023-02-22T15:57:57;5.88;;;4.93;;
33844;SDS011;20145;43.118;25.694;2023-02-22T16:00:45;5.18;;;4.40;;
33844;SDS011;20145;43.118;25.694;2023-02-22T16:03:15;8.90;;;7.87;;
33844;SDS011;20145;43.118;25.694;2023-02-22T16:05:50;8.93;;;4.95;;
33844;SDS011;20145;43.118;25.694;2023-02-22T16:08:23;9.48;;;6.07;;
33844;SDS011;20145;43.118;25.694;2023-02-22T16:13:28;16.80;;;9.80;;
33844;SDS011;20145;43.118;25.694;2023-02-22T16:15:58;16.95;;;11.02;;
33844;SDS011;20145;43.118;25.694;2023-02-22T16:18:36;23.27;;;11.38;;
33844;SDS011;20145;43.118;25.694;2023-02-22T16:21:04;17.92;;;9.98;;
33844;SDS011;20145;43.118;25.694;2023-02-22T16:23:31;22.88;;;12.93;;
33844;SDS011;20145;43.118;25.694;2023-02-22T16:28:48;45.60;;;22.05;;
33844;SDS011;20145;43.118;25.694;2023-02-22T16:31:18;21.80;;;13.90;;
33844;SDS011;20145;43.118;25.694;2023-02-22T16:33:49;20.13;;;7.95;;
33844;SDS011;20145;43.118;25.694;2023-02-22T16:36:16;10.40;;;6.68;;
33844;SDS011;20145;43.118;25.694;2023-02-22T16:38:43;13.50;;;6.70;;
33844;SDS011;20145;43.118;25.694;2023-02-22T16:41:12;13.20;;;8.38;;
33844;SDS011;20145;43.118;25.694;2023-02-22T16:43:43;11.10;;;7.50;;
33844;SDS011;20145;43.118;25.694;2023-02-22T16:46:11;22.23;;;9.32;;
33844;SDS011;20145;43.118;25.694;2023-02-22T16:48:36;9.60;;;7.93;;
33844;SDS011;20145;43.118;25.694;2023-02-22T16:51:16;15.90;;;10.07;;
33844;SDS011;20145;43.118;25.694;2023-02-22T16:53:42;31.85;;;17.02;;
33844;SDS011;20145;43.118;25.694;2023-02-22T16:56:09;27.65;;;16.15;;
33844;SDS011;20145;43.118;25.694;2023-02-22T16:58:40;19.70;;;12.38;;
33844;SDS011;20145;43.118;25.694;2023-02-22T17:01:06;11.90;;;6.72;;
33844;SDS011;20145;43.118;25.694;2023-02-22T17:03:33;19.15;;;12.55;;
33844;SDS011;20145;43.118;25.694;2023-02-22T17:05:59;15.00;;;8.20;;
33844;SDS011;20145;43.118;25.694;2023-02-22T17:08:25;5.50;;;3.90;;
33844;SDS011;20145;43.118;25.694;2023-02-22T17:10:51;4.95;;;2.78;;
33844;SDS011;20145;43.118;25.694;2023-02-22T17:13:23;3.35;;;3.00;;
33844;SDS011;20145;43.118;25.694;2023-02-22T17:15:51;3.20;;;2.70;;
33844;SDS011;20145;43.118;25.694;2023-02-22T17:18:19;6.38;;;3.58;;
33844;SDS011;20145;43.118;25.694;2023-02-22T17:20:49;4.35;;;3.47;;
33844;SDS011;20145;43.118;25.694;2023-02-22T17:23:16;6.53;;;3.70;;
33844;SDS011;20145;43.118;25.694;2023-02-22T17:25:55;4.88;;;4.25;;
33844;SDS011;20145;43.118;25.694;2023-02-22T17:28:26;5.75;;;3.85;;
33844;SDS011;20145;43.118;25.694;2023-02-22T17:30:53;7.82;;;3.58;;
33844;SDS011;20145;43.118;25.694;2023-02-22T17:33:21;5.35;;;3.00;;
33844;SDS011;20145;43.118;25.694;2023-02-22T17:35:50;14.83;;;4.00;;
33844;SDS011;20145;43.118;25.694;2023-02-22T17:38:17;6.80;;;3.25;;
33844;SDS011;20145;43.118;25.694;2023-02-22T17:40:44;5.53;;;3.08;;
33844;SDS011;20145;43.118;25.694;2023-02-22T17:43:16;4.70;;;3.00;;